West Newton, MA (02465)

5:05 PM EDT on August 22, 2017 (GMT -0400)
South Waltham | | Change Station

Elev 89 ft 42.37 °N, 71.23 °W | Updated 26 seconds ago

Partly Cloudy
Partly Cloudy
89.8 °F
Feels Like 98 °F
N
3.0
Wind Variable Wind from SW
Gusts 4.0 mph

Today
High -- | Low -- °F
--% Chance of Precip.
Yesterday
High -- | Low -- °F
Precip. -- in
Pressure 29.81 in
Visibility 10.0 miles
Clouds Mostly Cloudy 4000 ft
Heat Index 98 °F
Dew Point 72 °F
Humidity 57%
Rainfall 0.00 in
Snow Depth Not available.
5:59 AM 7:34 PM
New Moon, 2% visible
METAR KBED 222056Z 20014G26KT 10SM BKN040 31/19 A2977 RMK AO2 PK WND 21026/2050 SLP093 T03060194 56033
Pressure 29.81 in
Visibility 10.0 miles
Clouds Mostly Cloudy 4000 ft
Heat Index 98 °F
Dew Point 72 °F
Humidity 57%
Rainfall 0.00 in
Snow Depth Not available.
5:59 AM 7:34 PM
New Moon, 2% visible
METAR KBED 222056Z 20014G26KT 10SM BKN040 31/19 A2977 RMK AO2 PK WND 21026/2050 SLP093 T03060194 56033

Get Severe Weather Alerts

Thanks for signing up!

Be on the lookout for a verification email in your inbox.

You'll start receiving the daily forecast at 6 AM.

×

10-Day Weather Forecast

Almanac

Astronomy

Aug. 22, 2017 Rise Set
Actual Time
Civil Twilight
Nautical Twilight
Astronomical Twilight
Moon
Length of Visible Light
Length of Day
Tomorrow will be .
, % of the Moon is Illuminated

Today's Extremes

State Highs State Lows

Community

WunderPhotos

Category 6

Welcome to Category 6. This is the collective home for Weather Underground's featured writeups by Dr. Jeff Masters (right), Bob Henson (left), Chris Burt, and other regular contributors.

Nearby

Air Quality

  Air Quality AQ Index Pollutant
Not available.

Snow Depth

Station Depth Elevation

Earthquake Activity

City Distance Mag. Time & Date
Minimum magnitude displayed is 2.5.

Coastal Water Temperatures

Place Temperature

Stations

Nearby Weather Stations

Station Location Temp. Windchill Dew Point Humidity Wind Precip. Elev Updated Type
                   

Watches & Warnings

There are currently no watches in effect.